Stations météo

réclame
Mon MeteoGroup
Gielas, Suède (2110): Température de l'air & dewpoint: 18.05.2019 05:00:00 - 24.05.2019 05:00:00 (CEST)Gielas, Suède (2110): Vitesse du vent & gusts: 18.05.2019 05:00:00 - 24.05.2019 05:00:00 (CEST)Gielas, Suède (2110): Direction du vent: 18.05.2019 05:00:00 - 24.05.2019 05:00:00 (CEST)Gielas, Suède (2110): visibility: 18.05.2019 05:00:00 - 24.05.2019 05:00:00 (CEST)Gielas, Suède (2110): Quantités de précipitations: 18.05.2019 05:00:00 - 24.05.2019 05:00:00 (CEST)
Date & Time tt [°C] td [°C] ff [km/h] ff [knt] fx [km/h] fx [knt] dd vv [km] rr [mm]
24.05.2019 05:00:00 - - - - - - - - -
24.05.2019 04:00:00 0,3 -0,1 8 4 19 10 NE 50 0,0
24.05.2019 03:00:00 0,2 0,1 11 6 20 11 ENE 50 0,1
24.05.2019 02:00:00 0,1 0,1 9 5 - - ENE 28 0,6
24.05.2019 01:00:00 0,1 0,0 11 6 20 11 ENE 1,4 1,0
24.05.2019 00:00:00 0,2 0,1 9 5 23 13 ENE 4,2 0,7
23.05.2019 23:00:00 0,3 0,0 11 6 23 12 ENE 6 0,2
23.05.2019 22:00:00 0,3 0,2 10 6 21 12 ENE 3,6 0,9
23.05.2019 21:00:00 0,2 0,1 9 5 23 12 ENE 2,0 2,5
23.05.2019 20:00:00 0,3 0,2 9 5 19 11 ENE 1,4 1,9
23.05.2019 19:00:00 0,6 0,0 11 6 24 13 E 1,9 1,0
23.05.2019 18:00:00 1,0 0,3 11 6 22 12 ENE 8 0,8
23.05.2019 17:00:00 1,2 0,3 12 7 26 14 E 9 0,6
23.05.2019 16:00:00 1,1 0,2 14 7 29 15 E 4,3 1,4
23.05.2019 15:00:00 1,5 0,6 14 8 28 15 ENE 6 1,0
23.05.2019 14:00:00 1,6 0,7 15 8 31 17 ENE 8 0,6
23.05.2019 13:00:00 2,0 1,1 12 7 - - E 20 0,3
23.05.2019 12:00:00 2,0 1,1 15 8 - - E 33 0,4
23.05.2019 11:00:00 1,8 1,1 15 8 27 15 ENE 13 0,3
23.05.2019 10:00:00 1,9 0,9 14 8 32 17 E 30 0,1
23.05.2019 09:00:00 2,3 1,4 13 7 26 14 E 44 0,0
23.05.2019 08:00:00 2,3 1,4 15 8 29 16 E 28 0,0
23.05.2019 07:00:00 2,2 1,5 14 7 27 15 ENE 25 0,1
23.05.2019 06:00:00 2,1 1,5 10 5 28 15 ENE 22 0,1
23.05.2019 05:00:00 2,3 1,6 12 6 31 17 ENE 29 0,3
23.05.2019 04:00:00 2,6 1,7 16 8 35 19 ENE 16 0,4
23.05.2019 03:00:00 2,8 1,9 16 9 - - ENE 16 0,7
23.05.2019 02:00:00 3,5 2,2 19 10 34 18 E 22 0,3
23.05.2019 01:00:00 4,0 3,3 14 8 - - ENE 31 0,5
23.05.2019 00:00:00 4,7 4,3 15 8 31 17 ENE 16 1,7
22.05.2019 23:00:00 5,5 4,6 16 8 39 21 ENE 6 4,3
22.05.2019 22:00:00 7,6 6,7 23 12 40 21 E 6 0,8
22.05.2019 21:00:00 9,3 8,4 20 11 35 19 ENE 17 0,1
22.05.2019 20:00:00 12,0 10,1 9 5 21 11 ENE 50 0,0
22.05.2019 19:00:00 11,2 8,8 10 5 19 10 ENE 50 0,0
22.05.2019 18:00:00 12,4 9,2 9 5 22 12 ENE 50 0,0
22.05.2019 17:00:00 11,8 8,3 11 6 - - ENE 50 0,0
22.05.2019 16:00:00 13,5 10,7 14 8 21 11 ENE 41 0,0
22.05.2019 15:00:00 13,5 11,7 8 4 12 7 NE 31 0,0
22.05.2019 14:00:00 12,7 10,9 7 4 18 10 NNE 33 1,0
22.05.2019 13:00:00 16,3 10,2 8 5 17 9 SW 34 0,0
22.05.2019 12:00:00 16,0 9,7 7 4 18 10 SSW 47 0,0
22.05.2019 11:00:00 14,0 8,8 5 3 9 5 E 46 0,0
22.05.2019 10:00:00 13,4 8,2 4 2 8 4 NE 43 0,0
22.05.2019 09:00:00 12,2 7,3 6 3 9 5 ESE 47 0,0
22.05.2019 08:00:00 10,3 6,3 3 1 - - W 50 0,0
22.05.2019 07:00:00 8,9 6,5 3 1 5 3 W 50 0,0
22.05.2019 06:00:00 7,1 5,1 4 2 6 3 E 45 0,0
22.05.2019 05:00:00 5,3 5,0 1 1 5 3 ENE 35 0,0
22.05.2019 04:00:00 4,0 3,7 4 2 6 3 WSW 18 0,0
22.05.2019 03:00:00 4,1 3,8 3 1 8 4 NNW 19 0,0
22.05.2019 02:00:00 4,3 3,9 6 4 10 5 W 21 0,0
22.05.2019 01:00:00 5,8 5,1 5 3 8 4 WNW 43 0,0
22.05.2019 00:00:00 8,1 6,4 5 3 10 5 WSW 50 0,0
21.05.2019 23:00:00 9,6 6,3 6 3 9 5 WSW 50 0,0
21.05.2019 22:00:00 12,1 7,4 4 2 11 6 NE 50 0,0
21.05.2019 21:00:00 14,0 7,7 6 3 11 6 NE 50 0,0
21.05.2019 20:00:00 15,0 7,5 5 3 16 9 ENE 50 0,0
21.05.2019 19:00:00 15,5 8,0 9 5 18 10 E 50 0,0
21.05.2019 18:00:00 15,2 8,2 9 5 21 11 E 50 0,0
21.05.2019 17:00:00 16,6 7,8 7 4 16 8 ESE 50 0,0
21.05.2019 16:00:00 17,2 7,0 7 4 - - E 50 0,0
21.05.2019 15:00:00 16,9 7,0 8 4 15 8 NE 46 0,0
21.05.2019 14:00:00 16,1 7,3 10 5 16 9 ENE 47 0,0
21.05.2019 13:00:00 16,0 7,0 8 5 15 8 NE 38 0,0
21.05.2019 12:00:00 15,1 7,1 6 3 10 6 E 43 0,0
21.05.2019 11:00:00 14,8 7,4 7 4 12 7 ESE 42 0,0
21.05.2019 10:00:00 13,0 7,7 7 4 13 7 E 49 0,0
21.05.2019 09:00:00 13,1 6,9 4 2 8 5 E 43 0,0
21.05.2019 08:00:00 9,5 4,9 4 2 6 3 ESE 50 0,0
21.05.2019 07:00:00 6,7 2,8 2 1 5 3 E 49 0,0
21.05.2019 06:00:00 4,5 2,7 3 2 8 5 WSW 46 0,0
21.05.2019 05:00:00 1,1 1,0 3 2 8 4 W 7 0,0
21.05.2019 04:00:00 0,1 0,0 4 2 8 5 W 7 0,0
21.05.2019 03:00:00 0,9 0,6 3 1 9 5 W 9 0,0
21.05.2019 02:00:00 1,6 1,3 3 2 9 5 WSW 11 0,0
21.05.2019 01:00:00 3,4 2,8 4 2 7 4 W 19 0,0
21.05.2019 00:00:00 5,2 4,0 3 1 6 3 WSW 50 0,0
20.05.2019 23:00:00 6,9 4,9 4 2 7 4 NNE 50 0,0
20.05.2019 22:00:00 9,4 6,3 3 2 8 4 WNW 50 0,0
20.05.2019 21:00:00 11,3 6,4 3 2 14 8 N 50 0,0
20.05.2019 20:00:00 12,2 6,9 8 4 18 10 NNW 50 0,0
20.05.2019 19:00:00 12,9 6,5 9 5 16 9 NNW 50 0,0
20.05.2019 18:00:00 14,0 6,6 6 3 16 9 NNW 50 0,0
20.05.2019 17:00:00 13,6 6,5 6 4 14 8 NNW 50 0,0
20.05.2019 16:00:00 13,6 7,1 4 2 10 5 NNW 50 0,0
20.05.2019 15:00:00 13,2 7,2 4 2 9 5 NNW 47 0,0
20.05.2019 14:00:00 13,5 6,8 5 3 11 6 N 50 0,0
20.05.2019 13:00:00 12,5 7,0 6 3 14 8 E 50 0,0
20.05.2019 12:00:00 12,2 7,7 5 3 11 6 SE 46 0,0
20.05.2019 11:00:00 11,5 8,4 5 3 9 5 ESE 43 0,0
20.05.2019 10:00:00 10,0 8,4 3 2 7 4 ESE 39 0,0
20.05.2019 09:00:00 8,8 8,2 1 1 7 4 NW 35 0,0
20.05.2019 08:00:00 7,2 7,2 2 1 5 3 NNW 4,5 0,0
20.05.2019 07:00:00 6,3 6,3 2 1 4 2 WNW 1,2 0,0
20.05.2019 06:00:00 4,6 4,6 4 2 5 3 SE 0,7 0,1
20.05.2019 05:00:00 5,3 5,3 2 1 6 3 W 1,4 0,4
20.05.2019 04:00:00 5,2 5,2 3 2 5 3 ENE 0,8 1,1
20.05.2019 03:00:00 5,2 5,2 3 2 6 4 NNW 0,7 0,8
20.05.2019 02:00:00 5,7 5,7 4 2 9 5 SW 1,3 2,5
20.05.2019 01:00:00 5,3 5,2 3 2 5 3 NNE 0,6 0,0
20.05.2019 00:00:00 5,7 5,6 3 1 - - E 6 0,1
19.05.2019 23:00:00 6,4 6,3 1 1 5 3 ESE 7 0,0
19.05.2019 22:00:00 6,7 6,3 3 2 10 6 E 23 0,0
19.05.2019 21:00:00 8,0 7,4 4 2 10 5 E 14 0,6
19.05.2019 20:00:00 9,2 7,3 4 2 16 9 ENE 15 0,5
19.05.2019 19:00:00 12,4 4,1 11 6 32 17 SW 50 0,0
19.05.2019 18:00:00 15,1 2,3 12 7 31 17 SW 50 0,0
19.05.2019 17:00:00 17,9 1,8 15 8 29 16 SSW 50 0,0
19.05.2019 16:00:00 19,1 5,2 12 7 24 13 ESE 50 0,0
19.05.2019 15:00:00 19,7 2,1 4 2 20 11 WSW 50 0,0
19.05.2019 14:00:00 19,7 2,5 10 5 - - S 45 0,0
19.05.2019 13:00:00 19,8 2,6 6 4 23 12 S 42 0,0
19.05.2019 12:00:00 19,4 2,7 7 4 25 14 SE 38 0,0
19.05.2019 11:00:00 17,9 3,4 4 2 15 8 E 45 0,0
19.05.2019 10:00:00 17,1 2,3 4 2 8 4 SSE 50 0,0
19.05.2019 09:00:00 13,0 1,3 2 1 7 4 ESE 44 0,0
19.05.2019 08:00:00 10,2 1,3 3 1 5 3 ESE 50 0,0
19.05.2019 07:00:00 6,3 1,0 3 1 7 4 SE 50 0,0
19.05.2019 06:00:00 2,1 0,0 2 1 5 3 SSE 50 0,0
19.05.2019 05:00:00 1,5 0,6 4 2 8 4 WNW 50 0,0
19.05.2019 04:00:00 -1,3 -1,7 3 2 5 3 NW 50 0,0
19.05.2019 03:00:00 -0,7 -1,1 2 1 6 4 WSW 50 0,0
19.05.2019 02:00:00 -0,5 -1,2 4 2 8 4 W 50 0,0
19.05.2019 01:00:00 1,1 -0,2 3 2 6 4 W 50 0,0
19.05.2019 00:00:00 3,0 0,6 3 1 8 4 SW 50 0,0
18.05.2019 23:00:00 5,1 0,7 5 3 - - NNE 50 0,0
18.05.2019 22:00:00 9,5 1,2 4 2 8 4 SW 50 0,0
18.05.2019 21:00:00 14,4 1,0 3 1 12 7 ENE 50 0,0
18.05.2019 20:00:00 16,7 1,2 7 4 18 10 WSW 50 0,0
18.05.2019 19:00:00 18,2 -0,6 8 4 22 12 SW 50 0,0
18.05.2019 18:00:00 18,4 -1,5 11 6 27 14 SW 50 0,0
18.05.2019 17:00:00 18,9 0,0 11 6 27 15 SW 50 0,0
18.05.2019 16:00:00 19,4 1,4 12 6 24 13 SW 41 0,0
18.05.2019 15:00:00 19,0 0,1 11 6 25 13 SW 44 0,0
18.05.2019 14:00:00 19,3 -1,8 9 5 25 14 SSW 39 0,0
18.05.2019 13:00:00 18,8 -4,6 11 6 26 14 SE 45 0,0
18.05.2019 12:00:00 18,3 -1,5 13 7 24 13 SE 39 0,0
18.05.2019 11:00:00 16,9 1,3 7 4 16 9 NE 49 0,0
18.05.2019 10:00:00 15,2 2,0 5 3 10 5 ESE 44 0,0
18.05.2019 09:00:00 13,0 -0,3 3 1 7 4 ESE 50 0,0
18.05.2019 08:00:00 9,4 0,3 4 2 - - E 50 0,0
18.05.2019 07:00:00 6,2 -0,5 3 2 8 4 WSW 50 0,0
18.05.2019 06:00:00 3,2 -1,0 3 2 7 4 WSW 50 0,0
18.05.2019 05:00:00 0,2 -1,2 1 1 4 2 WNW 50 0,0

tt = Température de l'air
td = dewpoint
ff = Vitesse du vent
fx = gusts
dd = Direction du vent
vv = visibility
rr = Quantités de précipitations

stations d'obs. à proximité